Time;durP1;ratioP1;P1;durP2;ratioP2;P2;SDS_P1;SDS_P2;PMS_P1;PMS_P2;Temp;Humidity;BMP_temperature;BMP_pressure;BME280_temperature;BME280_humidity;BME280_pressure;Samples;Min_cycle;Max_cycle;Signal;HPM_P1;HPM_P2
2023/09/27 01:42:54;;;;;;;9.80;9.50;;;13.20;99.90;;;;;;6184203;22;20205;-82
2023/09/27 01:45:21;;;;;;;9.60;9.30;;;13.20;99.90;;;;;;6305510;22;20480;-81
2023/09/27 01:47:48;;;;;;;9.70;9.40;;;13.20;99.90;;;;;;6306817;22;20193;-82
2023/09/27 01:50:18;;;;;;;9.67;9.37;;;13.20;99.90;;;;;;6305940;22;20201;-82
2023/09/27 01:52:47;;;;;;;9.80;9.50;;;13.20;99.90;;;;;;6302867;22;20204;-82
2023/09/27 01:55:14;;;;;;;9.87;9.57;;;13.20;99.90;;;;;;6306530;22;20245;-82
2023/09/27 01:57:42;;;;;;;9.70;9.40;;;13.20;99.90;;;;;;6307327;22;20205;-82
2023/09/27 02:00:11;;;;;;;9.90;9.60;;;13.10;99.90;;;;;;6303116;22;20189;-81
2023/09/27 02:02:38;;;;;;;9.83;9.53;;;13.10;99.90;;;;;;6301511;22;20257;-81
2023/09/27 02:05:07;;;;;;;9.80;9.50;;;13.10;99.90;;;;;;6301516;22;20209;-81
2023/09/27 02:07:34;;;;;;;9.60;9.30;;;13.10;99.90;;;;;;6300128;22;20205;-82
2023/09/27 02:10:02;;;;;;;9.77;9.47;;;13.10;99.90;;;;;;6300101;22;20197;-82
2023/09/27 02:12:29;;;;;;;9.40;9.10;;;13.00;99.90;;;;;;6298894;22;20252;-82
2023/09/27 02:14:56;;;;;;;10.00;9.70;;;13.00;99.90;;;;;;6299679;22;20201;-82
2023/09/27 02:17:23;;;;;;;9.43;9.13;;;13.00;99.90;;;;;;6299117;22;20201;-81
2023/09/27 02:19:51;;;;;;;9.77;9.47;;;13.00;99.90;;;;;;6298964;22;20204;-82
2023/09/27 02:22:18;;;;;;;9.73;9.43;;;13.00;99.90;;;;;;6305124;22;20257;-81
2023/09/27 02:24:47;;;;;;;9.70;9.40;;;12.90;99.90;;;;;;6303868;22;20204;-81
2023/09/27 02:27:15;;;;;;;9.60;9.30;;;12.90;99.90;;;;;;6302270;22;20196;-82
2023/09/27 02:29:43;;;;;;;9.63;9.33;;;12.90;99.90;;;;;;6302038;22;20216;-82
2023/09/27 02:32:10;;;;;;;9.57;9.27;;;12.80;99.90;;;;;;6300263;22;20205;-82
2023/09/27 02:34:37;;;;;;;9.53;9.23;;;12.80;99.90;;;;;;6298941;22;20194;-82
2023/09/27 02:37:05;;;;;;;9.67;9.37;;;12.80;99.90;;;;;;6298805;22;20205;-82
2023/09/27 02:39:32;;;;;;;9.70;9.40;;;12.70;99.90;;;;;;6299239;22;20196;-82
2023/09/27 02:41:59;;;;;;;9.60;9.30;;;12.70;99.90;;;;;;6299008;22;20236;-82
2023/09/27 02:44:28;;;;;;;9.50;9.20;;;12.60;99.90;;;;;;6301152;22;20190;-81
2023/09/27 02:46:56;;;;;;;9.60;9.30;;;12.60;99.90;;;;;;6300121;22;20194;-81
2023/09/27 02:49:23;;;;;;;9.90;9.60;;;12.60;99.90;;;;;;6300368;22;20201;-82
2023/09/27 02:51:53;;;;;;;9.60;9.30;;;12.60;99.90;;;;;;6298978;22;20197;-82
2023/09/27 02:54:20;;;;;;;9.60;9.30;;;12.50;99.90;;;;;;6299346;22;20202;-81
2023/09/27 02:56:47;;;;;;;9.70;9.40;;;12.50;99.90;;;;;;6298700;22;20204;-81
2023/09/27 02:59:15;;;;;;;9.87;9.57;;;12.50;99.90;;;;;;6299739;22;20201;-81
2023/09/27 03:01:44;;;;;;;9.50;9.20;;;12.50;99.90;;;;;;6299602;22;20206;-81
2023/09/27 03:04:12;;;;;;;9.70;9.40;;;12.50;99.90;;;;;;6298951;22;20198;-81
2023/09/27 03:06:41;;;;;;;10.10;9.80;;;12.50;99.90;;;;;;6299142;22;20228;-81
2023/09/27 03:09:10;;;;;;;9.70;9.40;;;12.40;99.90;;;;;;6298670;22;20253;-82
2023/09/27 03:11:37;;;;;;;9.40;9.10;;;12.50;99.90;;;;;;6298717;22;20206;-82
2023/09/27 03:14:04;;;;;;;9.43;9.13;;;12.50;99.90;;;;;;6299248;22;20198;-82
2023/09/27 03:16:32;;;;;;;9.70;9.40;;;12.40;99.90;;;;;;6298638;22;20220;-82
2023/09/27 03:19:00;;;;;;;9.80;9.50;;;12.40;99.90;;;;;;6299144;22;20224;-82
2023/09/27 03:21:28;;;;;;;9.80;9.50;;;12.40;99.90;;;;;;6298654;22;20237;-81
2023/09/27 03:23:55;;;;;;;9.33;9.03;;;12.30;99.90;;;;;;6297838;22;20244;-82
2023/09/27 03:26:23;;;;;;;9.70;9.40;;;12.30;99.90;;;;;;6299156;22;20197;-82
2023/09/27 03:28:51;;;;;;;9.70;9.40;;;12.30;99.90;;;;;;6298839;22;20201;-81
2023/09/27 03:31:18;;;;;;;9.63;9.33;;;12.30;99.90;;;;;;6300735;22;20202;-81
2023/09/27 03:33:46;;;;;;;9.90;9.60;;;12.20;99.90;;;;;;6299237;22;20224;-82
2023/09/27 03:36:15;;;;;;;9.73;9.43;;;12.20;99.90;;;;;;6298352;22;20193;-82
2023/09/27 03:38:43;;;;;;;9.57;9.27;;;12.20;99.90;;;;;;6299038;22;20217;-81
2023/09/27 03:41:11;;;;;;;9.70;9.40;;;12.10;99.90;;;;;;6298069;22;20257;-81
2023/09/27 03:43:38;;;;;;;9.53;9.23;;;12.10;99.90;;;;;;6298776;22;20209;-82
2023/09/27 03:46:05;;;;;;;9.80;9.50;;;12.10;99.90;;;;;;6298831;22;20236;-82
2023/09/27 03:48:33;;;;;;;9.60;9.30;;;12.10;99.90;;;;;;6298586;22;20193;-81
2023/09/27 03:51:00;;;;;;;9.70;9.40;;;12.10;99.90;;;;;;6298260;22;20236;-82
2023/09/27 03:53:29;;;;;;;9.50;9.20;;;12.00;99.90;;;;;;6298910;22;20213;-81
2023/09/27 03:55:56;;;;;;;9.60;9.30;;;11.90;99.90;;;;;;6299599;22;20221;-81
2023/09/27 03:58:23;;;;;;;9.90;9.60;;;11.90;99.90;;;;;;6299187;22;20189;-81
2023/09/27 04:00:51;;;;;;;9.60;9.30;;;11.90;99.90;;;;;;6299135;22;20201;-82
2023/09/27 04:03:20;;;;;;;9.50;9.20;;;11.90;99.90;;;;;;6298268;22;20213;-81
2023/09/27 04:05:47;;;;;;;9.20;8.90;;;11.80;99.90;;;;;;6298697;22;20933;-82
2023/09/27 04:08:14;;;;;;;9.47;9.17;;;11.80;99.90;;;;;;6299061;22;20190;-82
2023/09/27 04:10:43;;;;;;;9.30;9.00;;;11.90;99.90;;;;;;6298836;22;20193;-82
2023/09/27 04:13:10;;;;;;;9.20;8.90;;;11.90;99.90;;;;;;6298000;22;20224;-82
2023/09/27 04:15:37;;;;;;;9.20;8.90;;;11.90;99.90;;;;;;6298468;22;20189;-81
2023/09/27 04:18:05;;;;;;;9.20;8.90;;;12.00;99.90;;;;;;6298714;22;20283;-82
2023/09/27 04:20:32;;;;;;;9.30;9.00;;;12.00;99.90;;;;;;6298092;22;20225;-82
2023/09/27 04:23:00;;;;;;;9.50;9.20;;;12.00;99.90;;;;;;6298687;22;20205;-82
2023/09/27 04:25:27;;;;;;;9.30;9.00;;;12.00;99.90;;;;;;6298007;22;20244;-82
2023/09/27 04:27:56;;;;;;;10.00;9.70;;;12.00;99.90;;;;;;6298959;22;20181;-81
2023/09/27 04:30:24;;;;;;;9.00;8.70;;;12.00;99.90;;;;;;6302446;22;20209;-81
2023/09/27 04:32:52;;;;;;;9.50;9.20;;;12.00;99.90;;;;;;6298173;22;20253;-82
2023/09/27 04:35:20;;;;;;;9.67;9.37;;;12.00;99.90;;;;;;6298361;22;20201;-82
2023/09/27 04:37:48;;;;;;;9.33;9.03;;;12.00;99.90;;;;;;6298633;22;20205;-82
2023/09/27 04:40:15;;;;;;;9.33;9.03;;;12.00;99.90;;;;;;6298200;22;20198;-82
2023/09/27 04:42:44;;;;;;;9.10;8.80;;;12.00;99.90;;;;;;6298924;22;20209;-82
2023/09/27 04:45:14;;;;;;;9.10;8.80;;;12.00;99.90;;;;;;6301671;22;20196;-81
2023/09/27 04:47:44;;;;;;;9.17;8.87;;;12.00;99.90;;;;;;6300663;22;20212;-82
2023/09/27 04:50:11;;;;;;;9.30;9.00;;;12.00;99.90;;;;;;6300235;22;20201;-81
2023/09/27 04:52:39;;;;;;;9.20;8.90;;;12.10;99.90;;;;;;6299843;22;20253;-82
2023/09/27 04:55:08;;;;;;;9.57;9.27;;;12.10;99.90;;;;;;6301598;22;20196;-82
2023/09/27 04:57:35;;;;;;;9.13;8.83;;;12.10;99.90;;;;;;6299700;22;20185;-82
2023/09/27 05:00:04;;;;;;;9.27;8.97;;;12.20;99.90;;;;;;6299798;22;20193;-82
2023/09/27 05:02:32;;;;;;;9.33;9.03;;;12.20;99.90;;;;;;6300532;22;20205;-82
2023/09/27 05:04:59;;;;;;;9.20;8.90;;;12.30;99.90;;;;;;6300339;22;20213;-82
2023/09/27 05:07:26;;;;;;;9.47;9.17;;;12.30;99.90;;;;;;6300101;22;20220;-82
2023/09/27 05:09:54;;;;;;;9.30;9.00;;;12.30;99.90;;;;;;6298776;22;20201;-82
2023/09/27 05:12:21;;;;;;;9.50;9.20;;;12.30;99.90;;;;;;6298523;22;20209;-81
2023/09/27 05:14:48;;;;;;;9.70;9.40;;;12.30;99.90;;;;;;6298442;22;20190;-82
2023/09/27 05:17:15;;;;;;;9.43;9.13;;;12.30;99.90;;;;;;6298441;22;20193;-82
2023/09/27 05:19:44;;;;;;;9.43;9.13;;;12.30;99.90;;;;;;6298277;22;20197;-82
2023/09/27 05:22:11;;;;;;;9.50;9.20;;;12.30;99.90;;;;;;6297718;22;20229;-82
2023/09/27 05:24:39;;;;;;;9.30;9.00;;;12.30;99.90;;;;;;6301849;22;20221;-82
2023/09/27 05:27:07;;;;;;;9.43;9.13;;;12.30;99.90;;;;;;6309159;22;20253;-82
2023/09/27 05:29:35;;;;;;;9.60;9.30;;;12.30;99.90;;;;;;6309187;22;20220;-82
2023/09/27 05:32:03;;;;;;;9.40;9.10;;;12.30;99.90;;;;;;6309043;22;20202;-81
2023/09/27 05:34:31;;;;;;;9.60;9.30;;;12.30;99.90;;;;;;6304951;22;20198;-82
2023/09/27 05:37:00;;;;;;;9.70;9.40;;;12.20;99.90;;;;;;6302308;22;20201;-82
2023/09/27 05:39:27;;;;;;;9.60;9.30;;;12.20;99.90;;;;;;6301257;22;20181;-82
2023/09/27 05:41:54;;;;;;;9.40;9.10;;;12.30;99.90;;;;;;6300106;22;20216;-82
2023/09/27 05:44:21;;;;;;;9.37;9.07;;;12.30;99.90;;;;;;6300409;22;20193;-82
2023/09/27 05:46:48;;;;;;;9.60;9.30;;;12.40;99.90;;;;;;6299889;22;20202;-82
2023/09/27 05:49:16;;;;;;;9.30;9.00;;;12.40;99.90;;;;;;6299328;22;20229;-82
2023/09/27 05:51:44;;;;;;;9.27;8.97;;;12.40;99.90;;;;;;6298164;22;20229;-82
2023/09/27 05:54:13;;;;;;;9.60;9.30;;;12.30;99.90;;;;;;6299044;22;20396;-82
2023/09/27 05:56:40;;;;;;;9.40;9.10;;;12.40;99.90;;;;;;6299301;22;20210;-82
2023/09/27 05:59:08;;;;;;;9.50;9.20;;;12.40;99.90;;;;;;6299332;22;20197;-82
2023/09/27 06:01:36;;;;;;;9.50;9.20;;;12.40;99.90;;;;;;6302984;22;20194;-82
2023/09/27 06:04:03;;;;;;;9.20;8.90;;;12.40;99.90;;;;;;6305836;22;20197;-82
2023/09/27 06:06:30;;;;;;;9.43;9.13;;;12.30;99.90;;;;;;6303301;22;20244;-81
2023/09/27 06:08:58;;;;;;;9.30;9.00;;;12.30;99.90;;;;;;6302376;22;20276;-81
2023/09/27 06:11:27;;;;;;;9.50;9.20;;;12.30;99.90;;;;;;6300731;22;20186;-82
2023/09/27 06:13:54;;;;;;;9.50;9.20;;;12.30;99.90;;;;;;6301560;22;20241;-82
2023/09/27 06:16:21;;;;;;;9.33;9.03;;;12.30;99.90;;;;;;6301420;22;20221;-82
2023/09/27 06:18:49;;;;;;;9.20;8.90;;;12.40;99.90;;;;;;6300573;22;20255;-81
2023/09/27 06:21:18;;;;;;;9.40;9.10;;;12.40;99.90;;;;;;6298889;22;20201;-82
2023/09/27 06:23:45;;;;;;;9.40;9.10;;;12.50;99.90;;;;;;6298784;22;20273;-82
2023/09/27 06:26:12;;;;;;;9.20;8.90;;;12.60;99.90;;;;;;6298671;22;20194;-83
2023/09/27 06:28:41;;;;;;;9.10;8.80;;;12.70;99.90;;;;;;6298128;22;20185;-82
2023/09/27 06:31:08;;;;;;;9.10;8.80;;;12.70;99.90;;;;;;6298384;22;20292;-82
2023/09/27 06:33:39;;;;;;;8.70;8.50;;;12.70;99.90;;;;;;6298578;22;20204;-82
2023/09/27 06:36:08;;;;;;;9.13;8.83;;;12.70;99.90;;;;;;6299650;22;20208;-82
2023/09/27 06:38:35;;;;;;;9.20;8.90;;;12.80;99.90;;;;;;6299708;22;20276;-82
2023/09/27 06:41:02;;;;;;;9.00;8.70;;;12.80;99.90;;;;;;6298865;22;20224;-82
2023/09/27 06:43:31;;;;;;;8.90;8.60;;;12.80;99.90;;;;;;6298785;22;20210;-82
2023/09/27 06:46:01;;;;;;;9.00;8.70;;;12.80;99.90;;;;;;6298658;22;20266;-82
2023/09/27 06:48:28;;;;;;;9.13;8.83;;;12.90;99.90;;;;;;6298909;22;20182;-82
2023/09/27 06:50:55;;;;;;;9.00;8.70;;;12.90;99.90;;;;;;6299140;22;20194;-82
2023/09/27 06:53:22;;;;;;;9.00;8.70;;;12.90;99.90;;;;;;6310325;22;20185;-82
2023/09/27 06:55:53;;;;;;;9.30;9.00;;;12.90;99.90;;;;;;6300095;22;20190;-82
2023/09/27 06:58:23;;;;;;;9.10;8.80;;;12.90;99.90;;;;;;6293910;22;20198;-82
2023/09/27 07:00:51;;;;;;;8.77;8.50;;;12.90;99.90;;;;;;6292943;22;20225;-82
2023/09/27 07:03:24;;;;;;;9.00;8.70;;;12.90;99.90;;;;;;6292885;22;20205;-81
2023/09/27 07:05:52;;;;;;;8.90;8.60;;;12.90;99.90;;;;;;6294498;22;20194;-82
2023/09/27 07:08:19;;;;;;;9.00;8.70;;;13.00;99.90;;;;;;6294525;22;20228;-82
2023/09/27 07:10:47;;;;;;;9.10;8.80;;;13.10;99.90;;;;;;6295740;22;20190;-82
2023/09/27 07:13:14;;;;;;;8.60;8.40;;;13.10;99.90;;;;;;6295754;22;20204;-82
2023/09/27 07:15:45;;;;;;;8.60;8.40;;;13.10;99.90;;;;;;6296321;22;20201;-82
2023/09/27 07:18:13;;;;;;;8.60;8.40;;;13.10;99.90;;;;;;6297574;22;20377;-82
2023/09/27 07:20:43;;;;;;;8.60;8.40;;;13.10;99.90;;;;;;6298244;22;20289;-82
2023/09/27 07:23:14;;;;;;;8.83;8.57;;;13.20;99.90;;;;;;6300033;22;20229;-82
2023/09/27 07:25:42;;;;;;;8.50;8.30;;;13.30;99.90;;;;;;6299878;22;20185;-82
2023/09/27 07:28:10;;;;;;;8.60;8.40;;;13.40;99.90;;;;;;6301142;22;20198;-81
2023/09/27 07:30:37;;;;;;;8.73;8.53;;;13.60;99.90;;;;;;6301557;22;20186;-81
2023/09/27 07:33:09;;;;;;;8.47;8.27;;;13.60;99.90;;;;;;6300167;22;20198;-81
2023/09/27 07:35:41;;;;;;;8.40;8.20;;;13.60;99.90;;;;;;6300730;22;20205;-80
2023/09/27 07:38:10;;;;;;;8.20;8.00;;;13.70;99.90;;;;;;6300612;22;20186;-81
2023/09/27 07:40:38;;;;;;;8.43;8.23;;;13.80;99.90;;;;;;6302367;22;20245;-80
2023/09/27 13:43:55;;;;;;;10.50;10.20;;;29.50;99.90;;;;;;6192277;22;20207;-81
2023/09/27 13:46:22;;;;;;;10.57;10.27;;;29.30;99.90;;;;;;6202019;23;20199;-81
2023/09/27 13:48:49;;;;;;;10.65;10.35;;;29.10;99.90;;;;;;6200272;23;20199;-81
2023/09/27 13:51:16;;;;;;;10.57;10.27;;;28.90;99.90;;;;;;6202687;23;20195;-81
2023/09/27 13:53:43;;;;;;;10.63;10.32;;;28.90;99.90;;;;;;6199344;22;20203;-81
2023/09/27 13:56:10;;;;;;;10.38;10.07;;;29.00;99.90;;;;;;6200927;22;20195;-82
2023/09/27 13:58:39;;;;;;;10.32;10.02;;;29.20;99.90;;;;;;6200642;22;20611;-83
2023/09/27 14:01:07;;;;;;;10.38;10.07;;;29.50;99.90;;;;;;6199900;23;20218;-82
2023/09/27 14:03:34;;;;;;;10.32;10.02;;;29.60;99.90;;;;;;6200222;22;20238;-81
2023/09/27 14:06:01;;;;;;;10.15;9.85;;;29.70;99.90;;;;;;6200670;23;20195;-81
2023/09/27 14:08:29;;;;;;;10.88;10.57;;;29.90;99.90;;;;;;6200258;23;20198;-81
2023/09/27 14:10:56;;;;;;;11.00;10.70;;;30.30;99.90;;;;;;6200491;23;20188;-81
2023/09/27 14:13:26;;;;;;;10.75;10.45;;;30.30;99.90;;;;;;6199844;22;20291;-82
2023/09/27 14:15:53;;;;;;;10.60;10.30;;;30.10;99.90;;;;;;6201553;23;20211;-80
2023/09/27 14:18:22;;;;;;;10.30;10.00;;;29.90;99.90;;;;;;6200592;23;20193;-81
2023/09/27 14:20:50;;;;;;;10.32;10.02;;;29.90;99.90;;;;;;6202076;23;20247;-81
2023/09/27 14:23:17;;;;;;;10.10;9.80;;;29.70;99.90;;;;;;6205216;22;20207;-81
2023/09/27 14:25:44;;;;;;;10.05;9.75;;;29.60;99.90;;;;;;6202578;23;20192;-81
2023/09/27 14:28:11;;;;;;;10.10;9.80;;;29.60;99.90;;;;;;6202338;23;20204;-81
2023/09/27 14:30:41;;;;;;;10.27;9.98;;;29.40;99.90;;;;;;6202153;23;20180;-82
2023/09/27 14:33:08;;;;;;;10.45;10.15;;;29.60;99.90;;;;;;6201007;22;20216;-81
2023/09/27 14:35:38;;;;;;;10.27;9.98;;;29.90;99.90;;;;;;6200716;23;20195;-82
2023/09/27 14:38:05;;;;;;;10.48;10.18;;;30.10;99.90;;;;;;6199776;23;20215;-81
2023/09/27 14:40:33;;;;;;;10.43;10.13;;;30.10;99.90;;;;;;6200000;23;20213;-81
2023/09/27 14:43:00;;;;;;;10.48;10.18;;;29.80;99.90;;;;;;6199906;22;20204;-81
2023/09/27 14:45:27;;;;;;;10.55;10.25;;;29.90;99.90;;;;;;6199910;23;20222;-81
2023/09/27 14:47:54;;;;;;;10.45;10.15;;;29.50;99.90;;;;;;6200345;22;20211;-81
2023/09/27 14:50:21;;;;;;;10.30;10.00;;;29.30;99.90;;;;;;6200881;23;20208;-81
2023/09/27 14:52:49;;;;;;;10.40;10.10;;;29.40;99.90;;;;;;6199698;22;20203;-82
2023/09/27 14:55:17;;;;;;;10.23;9.93;;;29.40;99.90;;;;;;6200557;22;20196;-81
2023/09/27 14:57:45;;;;;;;10.20;9.90;;;29.40;99.90;;;;;;6199774;23;20211;-82
2023/09/27 15:00:13;;;;;;;10.45;10.15;;;29.30;99.90;;;;;;6200950;23;20222;-82
2023/09/27 15:02:41;;;;;;;10.52;10.23;;;29.50;99.90;;;;;;6200516;22;20203;-82
2023/09/27 15:05:10;;;;;;;10.55;10.25;;;29.60;99.90;;;;;;6202399;23;20214;-81
2023/09/27 15:07:37;;;;;;;10.70;10.40;;;29.60;99.90;;;;;;6202963;23;20254;-82
2023/09/27 15:10:08;;;;;;;11.00;10.70;;;29.30;99.90;;;;;;6199068;23;20199;-82
2023/09/27 15:12:35;;;;;;;11.10;10.80;;;29.10;99.90;;;;;;6201804;22;20239;-82
2023/09/27 15:15:03;;;;;;;10.80;10.50;;;28.90;99.90;;;;;;6202035;23;20191;-81
2023/09/27 15:17:39;;;;;;;10.73;10.43;;;28.80;99.90;;;;;;6201221;23;20254;-81
2023/09/27 15:20:09;;;;;;;10.80;10.50;;;28.70;99.90;;;;;;6199948;23;20194;-81
2023/09/27 15:22:38;;;;;;;11.07;10.77;;;28.70;99.90;;;;;;6200449;22;20225;-82
2023/09/27 15:25:08;;;;;;;11.05;10.75;;;28.60;99.90;;;;;;6201988;22;20200;-82
2023/09/27 15:27:35;;;;;;;11.10;10.80;;;28.70;99.90;;;;;;6201790;23;20282;-80
2023/09/27 15:30:02;;;;;;;11.10;10.80;;;28.80;99.90;;;;;;6200763;23;20247;-82
2023/09/27 15:32:29;;;;;;;10.68;10.38;;;28.90;99.90;;;;;;6201372;22;20198;-82
2023/09/27 15:34:56;;;;;;;10.77;10.48;;;28.90;99.90;;;;;;6201233;23;20192;-82
2023/09/27 15:37:23;;;;;;;10.80;10.50;;;28.90;99.90;;;;;;6201766;23;20214;-81
2023/09/27 15:39:51;;;;;;;10.52;10.23;;;29.00;99.90;;;;;;6200792;23;20200;-81
2023/09/27 15:42:19;;;;;;;11.00;10.70;;;29.10;99.90;;;;;;6200392;23;20203;-81
2023/09/27 15:44:46;;;;;;;11.10;10.80;;;29.10;99.90;;;;;;6200510;22;20226;-82
2023/09/27 15:47:14;;;;;;;11.10;10.80;;;29.20;99.90;;;;;;6199799;23;20200;-82
2023/09/27 15:49:41;;;;;;;10.73;10.43;;;29.50;99.90;;;;;;6200001;23;20250;-82
2023/09/27 15:52:08;;;;;;;10.88;10.57;;;29.70;99.90;;;;;;6199717;23;20200;-82
2023/09/27 15:54:36;;;;;;;11.00;10.70;;;29.80;99.90;;;;;;6200803;22;20222;-83
2023/09/27 15:57:03;;;;;;;10.65;10.35;;;30.10;99.90;;;;;;6200212;23;20202;-82
2023/09/27 15:59:32;;;;;;;10.90;10.60;;;30.40;99.90;;;;;;6199118;23;20202;-82
2023/09/27 16:01:59;;;;;;;10.73;10.43;;;30.40;99.90;;;;;;6200443;23;20212;-81
2023/09/27 16:04:26;;;;;;;10.60;10.30;;;30.40;99.90;;;;;;6199609;22;20203;-80
2023/09/27 16:06:53;;;;;;;10.70;10.40;;;30.30;99.90;;;;;;6201714;23;20227;-81
2023/09/27 16:09:20;;;;;;;10.82;10.52;;;30.20;99.90;;;;;;6200812;23;20204;-81
2023/09/27 16:11:48;;;;;;;10.80;10.50;;;29.90;99.90;;;;;;6201446;23;20196;-82
2023/09/27 16:14:15;;;;;;;10.85;10.55;;;29.70;99.90;;;;;;6201787;22;20211;-82
2023/09/27 16:16:43;;;;;;;10.60;10.30;;;29.50;99.90;;;;;;6200219;22;20231;-81
2023/09/27 16:19:12;;;;;;;10.77;10.48;;;29.00;99.90;;;;;;6201862;23;20248;-82
2023/09/27 16:21:39;;;;;;;10.90;10.60;;;28.60;99.90;;;;;;6200517;23;20211;-83
2023/09/27 16:24:07;;;;;;;10.80;10.50;;;28.00;99.90;;;;;;6201764;22;20215;-82
2023/09/27 16:26:34;;;;;;;11.00;10.70;;;27.60;99.90;;;;;;6200860;23;20217;-81
2023/09/27 16:29:02;;;;;;;11.13;10.82;;;27.10;99.90;;;;;;6201625;23;20188;-82
2023/09/27 16:31:32;;;;;;;10.68;10.38;;;26.50;99.90;;;;;;6201246;23;20247;-82
2023/09/27 16:34:00;;;;;;;10.68;10.38;;;26.00;99.90;;;;;;6203474;22;20200;-82
2023/09/27 16:36:27;;;;;;;10.50;10.20;;;25.60;99.90;;;;;;6207714;23;20192;-81
2023/09/27 16:38:54;;;;;;;10.50;10.20;;;25.20;99.90;;;;;;6207532;23;20219;-82
2023/09/27 16:41:22;;;;;;;10.60;10.30;;;25.00;99.90;;;;;;6208225;23;20210;-82
2023/09/27 16:43:49;;;;;;;10.27;9.98;;;24.70;99.90;;;;;;6207409;22;20204;-82
2023/09/27 16:46:16;;;;;;;10.32;10.02;;;24.50;99.90;;;;;;6203688;22;20231;-82
2023/09/27 16:48:44;;;;;;;10.20;9.90;;;24.30;99.90;;;;;;6203895;23;20180;-82
2023/09/27 16:51:12;;;;;;;10.23;9.93;;;24.20;99.90;;;;;;6204458;23;20268;-82
2023/09/27 16:53:39;;;;;;;10.00;9.70;;;24.00;99.90;;;;;;6203069;22;20207;-82
2023/09/27 16:56:08;;;;;;;10.00;9.70;;;23.90;99.90;;;;;;6202768;23;20199;-82
2023/09/27 16:58:35;;;;;;;10.32;10.02;;;23.70;99.90;;;;;;6202212;22;20188;-82
2023/09/27 17:01:03;;;;;;;9.98;9.68;;;23.60;99.90;;;;;;6201770;23;20211;-82
2023/09/27 17:03:31;;;;;;;10.13;9.82;;;23.40;99.90;;;;;;6200770;22;20199;-82
2023/09/27 17:05:58;;;;;;;10.30;10.00;;;23.30;99.90;;;;;;6201959;23;20192;-82
2023/09/27 17:08:27;;;;;;;10.07;9.77;;;23.20;99.90;;;;;;6201473;23;20255;-81
2023/09/27 17:10:54;;;;;;;10.20;9.90;;;23.10;99.90;;;;;;6203785;23;20208;-82
2023/09/27 17:13:21;;;;;;;10.10;9.80;;;23.00;99.90;;;;;;6202620;22;20226;-82
2023/09/27 17:15:48;;;;;;;10.15;9.85;;;22.90;99.90;;;;;;6203978;23;20211;-82
2023/09/27 17:18:15;;;;;;;9.80;9.50;;;22.80;99.90;;;;;;6204206;23;20222;-81
2023/09/27 17:20:42;;;;;;;9.70;9.40;;;22.70;99.90;;;;;;6204718;23;20195;-82
2023/09/27 17:23:09;;;;;;;9.20;8.90;;;22.70;99.90;;;;;;6205358;22;20215;-82
2023/09/27 17:25:38;;;;;;;9.10;8.80;;;22.60;99.90;;;;;;6205535;23;20199;-82
2023/09/27 17:28:05;;;;;;;8.90;8.70;;;22.50;99.90;;;;;;6204381;23;20226;-82
2023/09/27 17:30:33;;;;;;;9.20;8.90;;;22.40;99.90;;;;;;6203636;23;20203;-82
2023/09/27 17:33:00;;;;;;;9.45;9.15;;;22.30;99.90;;;;;;6206468;22;20223;-82
2023/09/27 17:35:27;;;;;;;9.60;9.30;;;22.10;99.90;;;;;;6203517;23;20203;-82
2023/09/27 17:37:54;;;;;;;9.70;9.40;;;22.00;99.90;;;;;;6204204;23;20195;-82
2023/09/27 17:40:21;;;;;;;9.95;9.65;;;21.90;99.90;;;;;;6205307;22;20199;-82
2023/09/27 17:42:51;;;;;;;9.88;9.57;;;21.80;99.90;;;;;;6203769;22;20211;-82
2023/09/27 17:45:18;;;;;;;9.98;9.68;;;21.70;99.90;;;;;;6204797;23;20230;-82
2023/09/27 17:47:45;;;;;;;9.45;9.15;;;21.70;99.90;;;;;;6204166;23;20250;-81
2023/09/27 17:50:12;;;;;;;9.55;9.25;;;21.60;99.90;;;;;;6204890;23;20208;-81
2023/09/27 17:52:39;;;;;;;9.80;9.50;;;21.50;99.90;;;;;;6204220;22;20203;-82
2023/09/27 17:55:06;;;;;;;10.00;9.70;;;21.50;99.90;;;;;;6204082;23;20212;-82
2023/09/27 17:57:34;;;;;;;9.90;9.60;;;21.40;99.90;;;;;;6203658;23;20211;-82
2023/09/27 18:00:02;;;;;;;9.52;9.23;;;21.40;99.90;;;;;;6203608;23;20203;-81
2023/09/27 18:02:31;;;;;;;9.70;9.40;;;21.40;99.90;;;;;;6203740;22;20204;-81
2023/09/27 18:04:59;;;;;;;9.70;9.40;;;21.30;99.90;;;;;;6203510;23;20192;-82
2023/09/27 18:07:26;;;;;;;9.38;9.07;;;21.20;99.90;;;;;;6201871;23;20203;-83
2023/09/27 18:09:53;;;;;;;9.60;9.30;;;21.10;99.90;;;;;;6202168;23;20275;-81
2023/09/27 18:12:20;;;;;;;9.32;9.02;;;21.10;99.90;;;;;;6203100;23;20210;-82
2023/09/27 18:14:48;;;;;;;9.23;8.93;;;21.00;99.90;;;;;;6203524;23;20280;-81
2023/09/27 18:17:17;;;;;;;9.27;9.00;;;20.90;99.90;;;;;;6203055;22;20188;-81
2023/09/27 18:19:44;;;;;;;9.27;8.98;;;20.80;99.90;;;;;;6203789;22;20196;-81
2023/09/27 18:22:11;;;;;;;9.20;8.90;;;20.80;99.90;;;;;;6202575;23;20196;-81
2023/09/27 18:24:38;;;;;;;9.00;8.80;;;20.70;99.90;;;;;;6203267;22;20207;-81
2023/09/27 18:27:05;;;;;;;9.10;8.90;;;20.60;99.90;;;;;;6202722;23;20212;-81
2023/09/27 18:29:32;;;;;;;8.80;8.60;;;20.60;99.90;;;;;;6202624;23;20206;-81
2023/09/27 18:32:00;;;;;;;9.20;8.90;;;20.50;99.90;;;;;;6202430;23;20271;-82
2023/09/27 18:34:29;;;;;;;9.30;9.00;;;20.50;99.90;;;;;;6206866;22;20222;-81
2023/09/27 18:36:56;;;;;;;9.35;9.05;;;20.40;99.90;;;;;;6210903;22;20200;-80
2023/09/27 18:39:23;;;;;;;9.23;8.93;;;20.30;99.90;;;;;;6206662;23;20218;-81
2023/09/27 18:41:50;;;;;;;9.50;9.20;;;20.30;99.90;;;;;;6205101;23;20250;-81
2023/09/27 18:44:20;;;;;;;9.35;9.05;;;20.20;99.90;;;;;;6204832;22;20204;-82
2023/09/27 18:46:48;;;;;;;9.57;9.27;;;20.20;99.90;;;;;;6203906;23;20196;-81
2023/09/27 18:49:15;;;;;;;9.55;9.25;;;20.10;99.90;;;;;;6202870;23;20214;-81
2023/09/27 18:51:43;;;;;;;9.63;9.32;;;20.00;99.90;;;;;;6203502;23;20199;-82
2023/09/27 18:54:10;;;;;;;9.70;9.40;;;19.90;99.90;;;;;;6203224;22;20206;-82
2023/09/27 18:56:37;;;;;;;9.40;9.10;;;19.80;99.90;;;;;;6205074;23;20247;-82
2023/09/27 18:59:04;;;;;;;9.50;9.20;;;19.70;99.90;;;;;;6204179;23;20210;-81
2023/09/27 19:01:31;;;;;;;9.48;9.18;;;19.60;99.90;;;;;;6202076;23;20283;-80
2023/09/27 19:03:59;;;;;;;9.60;9.30;;;19.50;99.90;;;;;;6202263;22;20214;-82
2023/09/27 19:06:26;;;;;;;9.50;9.20;;;19.50;99.90;;;;;;6202879;23;20203;-82
2023/09/27 19:08:54;;;;;;;9.90;9.60;;;19.40;99.90;;;;;;6203312;22;20283;-82
2023/09/27 19:11:24;;;;;;;9.80;9.50;;;19.30;99.90;;;;;;6202961;23;20206;-82
2023/09/27 19:13:51;;;;;;;9.77;9.48;;;19.30;99.90;;;;;;6202017;22;20210;-82
2023/09/27 19:16:18;;;;;;;9.90;9.60;;;19.20;99.90;;;;;;6202200;23;20270;-82
2023/09/27 19:18:45;;;;;;;10.13;9.82;;;19.10;99.90;;;;;;6203115;23;20207;-82
2023/09/27 19:21:12;;;;;;;9.82;9.52;;;19.10;99.90;;;;;;6202482;23;20227;-83
2023/09/27 19:23:39;;;;;;;9.80;9.50;;;19.00;99.90;;;;;;6201222;22;20267;-84
2023/09/27 19:26:07;;;;;;;9.90;9.60;;;19.00;99.90;;;;;;6200922;23;20306;-82
2023/09/27 19:28:34;;;;;;;10.20;9.90;;;18.90;99.90;;;;;;6202526;23;20204;-82
2023/09/27 19:31:01;;;;;;;9.98;9.68;;;18.90;99.90;;;;;;6202409;23;20229;-82
2023/09/27 19:33:30;;;;;;;10.10;9.80;;;18.70;99.90;;;;;;6202377;22;20204;-82
2023/09/27 19:35:57;;;;;;;10.02;9.73;;;18.70;99.90;;;;;;6202469;22;20213;-82
2023/09/27 19:38:23;;;;;;;10.10;9.80;;;18.60;99.90;;;;;;6202007;23;20227;-82
2023/09/27 19:40:52;;;;;;;10.30;10.00;;;18.50;99.90;;;;;;6202131;23;20226;-82
2023/09/27 19:43:20;;;;;;;10.18;9.88;;;18.40;99.90;;;;;;6201161;22;20203;-83
2023/09/27 19:45:47;;;;;;;10.20;9.90;;;18.20;99.90;;;;;;6202465;23;20203;-82
2023/09/27 19:48:15;;;;;;;10.38;10.07;;;18.20;99.90;;;;;;6203082;23;20200;-82
2023/09/27 19:50:42;;;;;;;10.63;10.32;;;18.10;99.90;;;;;;6203047;23;20199;-82
2023/09/27 19:53:09;;;;;;;10.35;10.05;;;18.00;99.90;;;;;;6203982;22;20217;-83
2023/09/27 19:55:36;;;;;;;10.30;10.00;;;17.90;99.90;;;;;;6205468;23;20288;-81
2023/09/27 19:58:04;;;;;;;10.45;10.15;;;17.80;99.90;;;;;;6208364;23;20252;-82
2023/09/27 20:00:32;;;;;;;10.30;10.00;;;17.80;99.90;;;;;;6206964;23;20199;-83
2023/09/27 20:02:59;;;;;;;10.70;10.40;;;17.70;99.90;;;;;;6204886;22;20231;-82
2023/09/27 20:05:26;;;;;;;10.40;10.10;;;17.70;99.90;;;;;;6204029;23;20203;-82
2023/09/27 20:07:54;;;;;;;10.75;10.45;;;17.60;99.90;;;;;;6204401;23;20218;-83
2023/09/27 20:10:21;;;;;;;10.43;10.13;;;17.60;99.90;;;;;;6204963;23;20212;-83
2023/09/27 20:12:48;;;;;;;10.45;10.15;;;17.50;99.90;;;;;;6205361;22;20230;-82
2023/09/27 20:15:15;;;;;;;10.32;10.02;;;17.40;99.90;;;;;;6205229;23;20198;-82
2023/09/27 20:17:43;;;;;;;10.18;9.88;;;17.30;99.90;;;;;;6205996;23;20199;-82
2023/09/27 20:20:11;;;;;;;10.27;9.98;;;17.30;99.90;;;;;;6205884;23;20208;-82
2023/09/27 20:22:38;;;;;;;10.50;10.20;;;17.20;99.90;;;;;;6206457;22;20219;-82
2023/09/27 20:25:09;;;;;;;10.48;10.18;;;17.10;99.90;;;;;;6206040;23;20191;-82